Time;durP1;ratioP1;P1;durP2;ratioP2;P2;SDS_P1;SDS_P2;PMS_P1;PMS_P2;Temp;Humidity;BMP_temperature;BMP_pressure;BME280_temperature;BME280_humidity;BME280_pressure;Samples;Min_cycle;Max_cycle;Signal;HPM_P1;HPM_P2
2023/04/19 18:24:20;;;;;;;18.42;12.70;;;10.00;99.90;;;;;;6394604;27;20417;-75
2023/04/19 18:27:22;;;;;;;19.90;13.90;;;9.80;99.90;;;;;;6367711;28;20460;-77
2023/04/19 18:30:24;;;;;;;20.30;13.98;;;9.90;99.90;;;;;;6376726;27;20050;-74
2023/04/19 18:33:26;;;;;;;20.58;13.57;;;10.00;99.90;;;;;;6373235;27;20051;-76
2023/04/19 18:36:28;;;;;;;20.95;14.27;;;10.10;99.90;;;;;;6367489;28;20130;-74
2023/04/19 18:39:31;;;;;;;22.65;14.02;;;10.20;99.90;;;;;;6359286;27;20809;-74
2023/04/19 18:42:37;;;;;;;25.55;14.20;;;10.40;99.90;;;;;;6367972;27;20059;-76
2023/04/19 18:45:40;;;;;;;19.92;13.82;;;10.30;99.90;;;;;;6360498;27;20516;-75
2023/04/19 18:48:42;;;;;;;19.75;13.13;;;10.20;99.90;;;;;;6366978;27;20051;-76
2023/04/19 18:51:44;;;;;;;19.33;14.27;;;10.40;99.90;;;;;;6367052;28;20051;-74
2023/04/19 18:54:47;;;;;;;21.02;15.63;;;10.40;99.90;;;;;;6367883;27;20499;-74
2023/04/19 18:57:49;;;;;;;18.67;13.85;;;10.30;99.90;;;;;;6393068;27;20047;-75
2023/04/19 19:00:50;;;;;;;20.38;14.35;;;10.40;99.90;;;;;;6393136;27;20050;-76
2023/04/19 19:03:52;;;;;;;19.23;14.57;;;10.30;99.90;;;;;;6385659;27;20047;-73
2023/04/19 19:06:54;;;;;;;18.95;13.52;;;10.20;99.90;;;;;;6377340;27;20122;-76
2023/04/19 19:09:59;;;;;;;21.00;14.52;;;10.20;99.90;;;;;;6353766;27;20043;-74
2023/04/19 19:13:01;;;;;;;22.88;14.15;;;10.20;99.90;;;;;;6344103;28;20052;-75
2023/04/19 19:16:04;;;;;;;19.08;13.48;;;10.20;99.90;;;;;;6362957;27;20046;-76
2023/04/19 19:19:07;;;;;;;;;;;10.20;99.90;;;;;;6391488;27;20047;-74
2023/04/19 19:22:09;;;;;;;20.25;14.32;;;10.10;99.90;;;;;;6392598;27;19930;-77
2023/04/19 19:25:13;;;;;;;20.65;13.52;;;10.10;99.90;;;;;;6380660;27;20476;-76
2023/04/19 19:28:14;;;;;;;19.23;13.40;;;10.10;99.90;;;;;;6366252;28;20168;-75
2023/04/19 19:31:18;;;;;;;17.40;12.88;;;10.00;99.90;;;;;;6362831;27;20043;-77
2023/04/19 19:34:21;;;;;;;17.20;12.23;;;9.80;99.90;;;;;;6356534;28;20047;-74
2023/04/19 19:37:23;;;;;;;17.02;10.98;;;9.80;99.90;;;;;;6331424;28;20055;-74
2023/04/19 19:40:26;;;;;;;15.40;10.65;;;9.70;99.90;;;;;;6350477;28;20062;-75
2023/04/19 19:43:28;;;;;;;14.27;10.52;;;9.70;99.90;;;;;;6352595;27;20047;-76
2023/04/19 19:46:30;;;;;;;21.13;11.57;;;9.70;99.90;;;;;;6359390;27;20059;-76
2023/04/19 19:49:32;;;;;;;17.20;11.40;;;9.80;99.90;;;;;;6354621;28;20055;-76
2023/04/19 19:52:35;;;;;;;18.38;11.77;;;9.70;99.90;;;;;;6334191;27;20056;-74
2023/04/19 19:55:39;;;;;;;20.00;11.13;;;9.70;99.90;;;;;;6353048;27;20050;-76
2023/04/19 19:58:40;;;;;;;17.13;10.02;;;9.60;99.90;;;;;;6376658;27;20053;-74
2023/04/19 20:01:42;;;;;;;14.93;10.23;;;9.60;99.90;;;;;;6360449;27;20062;-75
2023/04/19 20:04:44;;;;;;;17.42;10.52;;;9.60;99.90;;;;;;6366295;27;20050;-76
2023/04/19 20:07:47;;;;;;;15.40;10.15;;;9.50;99.90;;;;;;6370927;27;20051;-74
2023/04/19 20:10:50;;;;;;;15.80;10.52;;;9.40;99.90;;;;;;6373794;27;20495;-75
2023/04/19 20:13:52;;;;;;;15.27;10.57;;;9.30;99.90;;;;;;6390879;27;20043;-75
2023/04/19 20:16:54;;;;;;;15.18;10.02;;;9.30;99.90;;;;;;6362384;27;20046;-75
2023/04/19 20:19:57;;;;;;;11.90;8.95;;;9.20;99.90;;;;;;6356872;28;20075;-75
2023/04/19 20:22:58;;;;;;;12.93;8.68;;;9.20;99.90;;;;;;6352696;28;20063;-76
2023/04/19 20:26:02;;;;;;;12.48;8.32;;;9.10;99.90;;;;;;6347932;28;20048;-74
2023/04/19 20:29:04;;;;;;;13.15;8.95;;;9.10;99.90;;;;;;6347236;28;20057;-74
2023/04/19 20:32:07;;;;;;;13.57;8.82;;;9.00;99.90;;;;;;6358458;27;20404;-78
2023/04/19 20:35:11;;;;;;;14.73;9.02;;;9.00;99.90;;;;;;6372703;27;20043;-76
2023/04/19 20:38:14;;;;;;;11.20;7.22;;;8.90;99.90;;;;;;6372605;27;20488;-74
2023/04/19 20:41:17;;;;;;;10.95;7.25;;;8.70;99.90;;;;;;6373051;27;20062;-75
2023/04/19 20:44:22;;;;;;;13.30;9.43;;;8.60;99.90;;;;;;6373009;27;20062;-75
2023/04/19 20:47:24;;;;;;;13.68;9.02;;;8.40;99.90;;;;;;6346557;27;20051;-77
2023/04/19 20:50:26;;;;;;;14.02;9.23;;;8.40;99.90;;;;;;6346154;28;20618;-75
2023/04/19 20:53:28;;;;;;;14.20;9.45;;;8.40;99.90;;;;;;6347536;28;20048;-75
2023/04/19 20:56:31;;;;;;;13.68;9.15;;;8.40;99.90;;;;;;6361259;27;20503;-74
2023/04/19 20:59:33;;;;;;;12.63;7.57;;;8.10;99.90;;;;;;6365899;28;20044;-75
2023/04/19 21:02:35;;;;;;;13.75;8.48;;;8.00;99.90;;;;;;6373849;28;20048;-76
2023/04/19 21:05:37;;;;;;;11.63;7.55;;;8.00;99.90;;;;;;6354604;28;20039;-74
2023/04/19 21:08:39;;;;;;;11.13;7.85;;;8.00;99.90;;;;;;6349359;28;20054;-77
2023/04/19 21:11:42;;;;;;;11.18;7.57;;;8.10;99.90;;;;;;6349333;28;20050;-74
2023/04/19 21:14:45;;;;;;;12.00;7.05;;;8.10;99.90;;;;;;6346538;28;20415;-75
2023/04/19 21:17:47;;;;;;;9.60;6.83;;;8.10;99.90;;;;;;6342929;28;20059;-74
2023/04/19 21:20:49;;;;;;;11.07;7.20;;;8.10;99.90;;;;;;6342217;27;20308;-74
2023/04/19 21:23:51;;;;;;;10.40;6.65;;;8.10;99.90;;;;;;6353298;27;20058;-75
2023/04/19 21:26:54;;;;;;;11.05;7.20;;;7.90;99.90;;;;;;6370253;27;20062;-74
2023/04/19 21:29:58;;;;;;;11.27;6.97;;;7.80;99.90;;;;;;6348423;28;20051;-74
2023/04/19 21:33:00;;;;;;;10.88;6.55;;;7.80;99.90;;;;;;6346710;28;20488;-74
2023/04/19 21:36:03;;;;;;;11.27;6.97;;;7.80;99.90;;;;;;6340851;27;20044;-74
2023/04/19 21:39:05;;;;;;;10.35;7.10;;;7.70;99.90;;;;;;6336800;28;20050;-75
2023/04/19 21:42:10;;;;;;;10.60;6.57;;;7.70;99.90;;;;;;6362599;28;20107;-75
2023/04/19 21:45:12;;;;;;;10.13;7.10;;;7.80;99.90;;;;;;6361215;27;20043;-77
2023/04/19 21:48:15;;;;;;;9.57;6.50;;;7.80;99.90;;;;;;6374735;27;20063;-76
2023/04/19 21:51:17;;;;;;;14.23;6.70;;;7.80;99.90;;;;;;6371039;27;20047;-77
2023/04/19 21:54:20;;;;;;;11.68;6.93;;;7.70;99.90;;;;;;6358494;27;20047;-76
2023/04/19 21:57:25;;;;;;;11.65;5.60;;;7.60;99.90;;;;;;6345445;28;20043;-76
